OCN6L EDDM-LEMH
Flight info
| Callsign | OCN6L |
|---|---|
| Flight time | 1h 46m |
| Altitude | 37000 |
| Route | TURBU7N TURBU Y107 TOBSO DCT BAKOR DCT PIDAD DCT TALEP DCT RARQU DCT BALEN UT250 RIXOT |
| Aircraft | A320/M-SDE2E3FGIJ1LORWXYZ/HB1 |
Departure
| Time | 2026-05-04 21:17 |
|---|---|
| Airport | Munich Airport (EDDM) |
Arrival
| Time | 2026-05-04 23:03 |
|---|---|
| Airport | Menorca Airport (LEMH) |
| Time | Latitude | Longitude | Altitude | Speed | Heading |
|---|---|---|---|---|---|
| 2026-05-04 20:53 | 48.35201 | 11.79342 | 1485 ft | 0 kts | 263° |
| 2026-05-04 20:56 | 48.35203 | 11.79356 | 1469 ft | 4 kts | 264° |
| 2026-05-04 20:57 | 48.35205 | 11.79397 | 1477 ft | 4 kts | 267° |
| 2026-05-04 20:57 | 48.35205 | 11.79437 | 1477 ft | 4 kts | 274° |
| 2026-05-04 20:57 | 48.35201 | 11.79476 | 1466 ft | 4 kts | 296° |
| 2026-05-04 20:57 | 48.35188 | 11.79498 | 1482 ft | 2 kts | 354° |
| 2026-05-04 20:58 | 48.35187 | 11.79499 | 1482 ft | 0 kts | 354° |
| 2026-05-04 21:01 | 48.35218 | 11.79494 | 1485 ft | 5 kts | 354° |
| 2026-05-04 21:01 | 48.35251 | 11.79489 | 1479 ft | 5 kts | 354° |
| 2026-05-04 21:02 | 48.35307 | 11.79480 | 1473 ft | 9 kts | 354° |
| 2026-05-04 21:02 | 48.35360 | 11.79472 | 1475 ft | 7 kts | 354° |
| 2026-05-04 21:02 | 48.35406 | 11.79484 | 1485 ft | 8 kts | 26° |
| 2026-05-04 21:02 | 48.35455 | 11.79516 | 1485 ft | 7 kts | 11° |
| 2026-05-04 21:03 | 48.35508 | 11.79511 | 1485 ft | 8 kts | 352° |
| 2026-05-04 21:03 | 48.35571 | 11.79499 | 1480 ft | 10 kts | 358° |
| 2026-05-04 21:03 | 48.35638 | 11.79490 | 1478 ft | 9 kts | 353° |
| 2026-05-04 21:03 | 48.35696 | 11.79479 | 1478 ft | 8 kts | 353° |
| 2026-05-04 21:04 | 48.35742 | 11.79471 | 1479 ft | 6 kts | 353° |
| 2026-05-04 21:04 | 48.35774 | 11.79465 | 1485 ft | 10 kts | 353° |
| 2026-05-04 21:04 | 48.35842 | 11.79455 | 1473 ft | 8 kts | 1° |
| 2026-05-04 21:04 | 48.35891 | 11.79467 | 1478 ft | 6 kts | 22° |
| 2026-05-04 21:05 | 48.35926 | 11.79493 | 1483 ft | 5 kts | 24° |
| 2026-05-04 21:05 | 48.35964 | 11.79499 | 1485 ft | 6 kts | 358° |
| 2026-05-04 21:05 | 48.35997 | 11.79495 | 1481 ft | 7 kts | 354° |
| 2026-05-04 21:05 | 48.36008 | 11.79494 | 1476 ft | 0 kts | 354° |
| 2026-05-04 21:06 | 48.36009 | 11.79494 | 1476 ft | 2 kts | 354° |
| 2026-05-04 21:06 | 48.36041 | 11.79488 | 1485 ft | 8 kts | 354° |
| 2026-05-04 21:06 | 48.36093 | 11.79502 | 1471 ft | 7 kts | 40° |
| 2026-05-04 21:06 | 48.36110 | 11.79562 | 1485 ft | 8 kts | 78° |
| 2026-05-04 21:07 | 48.36121 | 11.79696 | 1475 ft | 13 kts | 83° |
| 2026-05-04 21:07 | 48.36131 | 11.79824 | 1485 ft | 12 kts | 83° |
| 2026-05-04 21:07 | 48.36139 | 11.79937 | 1482 ft | 10 kts | 83° |
| 2026-05-04 21:07 | 48.36147 | 11.80040 | 1485 ft | 12 kts | 83° |
| 2026-05-04 21:08 | 48.36161 | 11.80209 | 1473 ft | 16 kts | 83° |
| 2026-05-04 21:08 | 48.36174 | 11.80370 | 1485 ft | 15 kts | 83° |
| 2026-05-04 21:08 | 48.36186 | 11.80512 | 1485 ft | 13 kts | 83° |
| 2026-05-04 21:08 | 48.36196 | 11.80641 | 1483 ft | 12 kts | 83° |
| 2026-05-04 21:09 | 48.36207 | 11.80765 | 1485 ft | 12 kts | 83° |
| 2026-05-04 21:09 | 48.36216 | 11.80891 | 1485 ft | 11 kts | 91° |
| 2026-05-04 21:09 | 48.36221 | 11.81000 | 1485 ft | 10 kts | 85° |
| 2026-05-04 21:09 | 48.36228 | 11.81108 | 1485 ft | 10 kts | 82° |
| 2026-05-04 21:10 | 48.36237 | 11.81208 | 1473 ft | 9 kts | 84° |
| 2026-05-04 21:10 | 48.36268 | 11.81267 | 1482 ft | 6 kts | 17° |
| 2026-05-04 21:10 | 48.36274 | 11.81270 | 1483 ft | 0 kts | 17° |
| 2026-05-04 21:11 | 48.36279 | 11.81270 | 1484 ft | 1 kts | 9° |
| 2026-05-04 21:11 | 48.36317 | 11.81271 | 1479 ft | 9 kts | 356° |
| 2026-05-04 21:11 | 48.36372 | 11.81255 | 1474 ft | 8 kts | 338° |
| 2026-05-04 21:11 | 48.36413 | 11.81196 | 1478 ft | 9 kts | 303° |
| 2026-05-04 21:12 | 48.36439 | 11.81109 | 1471 ft | 9 kts | 292° |
| 2026-05-04 21:12 | 48.36467 | 11.81014 | 1475 ft | 11 kts | 292° |
| 2026-05-04 21:12 | 48.36490 | 11.80934 | 1479 ft | 0 kts | 293° |
| 2026-05-04 21:15 | 48.36503 | 11.80885 | 1480 ft | 12 kts | 293° |
| 2026-05-04 21:15 | 48.36555 | 11.80749 | 1477 ft | 16 kts | 304° |
| 2026-05-04 21:15 | 48.36575 | 11.80649 | 1485 ft | 10 kts | 265° |
| 2026-05-04 21:15 | 48.36573 | 11.80632 | 1485 ft | 0 kts | 260° |
| 2026-05-04 21:16 | 48.36572 | 11.80622 | 1485 ft | 5 kts | 261° |
| 2026-05-04 21:16 | 48.36547 | 11.80237 | 1485 ft | 73 kts | 264° |
| 2026-05-04 21:16 | 48.36453 | 11.79167 | 1478 ft | 131 kts | 263° |
| 2026-05-04 21:17 | 48.36334 | 11.77678 | 1920 ft | 146 kts | 264° |
| 2026-05-04 21:17 | 48.36197 | 11.76115 | 2541 ft | 156 kts | 264° |
| 2026-05-04 21:17 | 48.36070 | 11.74452 | 2949 ft | 171 kts | 264° |
| 2026-05-04 21:17 | 48.35910 | 11.72558 | 3241 ft | 194 kts | 256° |
| 2026-05-04 21:18 | 48.35143 | 11.70828 | 3490 ft | 214 kts | 211° |
| 2026-05-04 21:18 | 48.33680 | 11.70199 | 3916 ft | 225 kts | 183° |
| 2026-05-04 21:18 | 48.32117 | 11.70207 | 4747 ft | 224 kts | 177° |
| 2026-05-04 21:18 | 48.30557 | 11.70344 | 5582 ft | 225 kts | 177° |
| 2026-05-04 21:19 | 48.29022 | 11.70701 | 6351 ft | 229 kts | 161° |
| 2026-05-04 21:19 | 48.27577 | 11.71843 | 6848 ft | 248 kts | 145° |
| 2026-05-04 21:19 | 48.26105 | 11.73463 | 6958 ft | 272 kts | 146° |
| 2026-05-04 21:19 | 48.24519 | 11.75116 | 7581 ft | 279 kts | 147° |
| 2026-05-04 21:20 | 48.22899 | 11.76762 | 8449 ft | 282 kts | 147° |
| 2026-05-04 21:20 | 48.21266 | 11.78408 | 9311 ft | 285 kts | 148° |
| 2026-05-04 21:20 | 48.19610 | 11.80072 | 10128 ft | 288 kts | 148° |
| 2026-05-04 21:20 | 48.17915 | 11.81628 | 10884 ft | 290 kts | 156° |
| 2026-05-04 21:21 | 48.15968 | 11.82734 | 11211 ft | 311 kts | 163° |
| 2026-05-04 21:21 | 48.13852 | 11.83778 | 11617 ft | 326 kts | 163° |
| 2026-05-04 21:21 | 48.11672 | 11.84844 | 12318 ft | 331 kts | 163° |
| 2026-05-04 21:21 | 48.09469 | 11.85926 | 13077 ft | 334 kts | 163° |
| 2026-05-04 21:22 | 48.07250 | 11.87023 | 13805 ft | 337 kts | 163° |
| 2026-05-04 21:22 | 48.05012 | 11.88136 | 14453 ft | 340 kts | 163° |
| 2026-05-04 21:22 | 48.02749 | 11.89263 | 15091 ft | 344 kts | 163° |
| 2026-05-04 21:22 | 48.00489 | 11.90386 | 15701 ft | 348 kts | 163° |
| 2026-05-04 21:23 | 47.98171 | 11.91532 | 16325 ft | 351 kts | 164° |
| 2026-05-04 21:23 | 47.95836 | 11.92682 | 16955 ft | 355 kts | 164° |
| 2026-05-04 21:23 | 47.93480 | 11.93842 | 17553 ft | 358 kts | 164° |
| 2026-05-04 21:23 | 47.91040 | 11.94687 | 18109 ft | 361 kts | 175° |
| 2026-05-04 21:24 | 47.88519 | 11.94824 | 18618 ft | 364 kts | 183° |
| 2026-05-04 21:24 | 47.85969 | 11.94756 | 19151 ft | 367 kts | 182° |
| 2026-05-04 21:24 | 47.83438 | 11.94701 | 19685 ft | 370 kts | 182° |
| 2026-05-04 21:24 | 47.80854 | 11.94653 | 20217 ft | 372 kts | 182° |
| 2026-05-04 21:25 | 47.78247 | 11.94609 | 20728 ft | 376 kts | 182° |
| 2026-05-04 21:25 | 47.75625 | 11.94564 | 21254 ft | 378 kts | 182° |
| 2026-05-04 21:25 | 47.72982 | 11.94520 | 21761 ft | 381 kts | 182° |
| 2026-05-04 21:25 | 47.70308 | 11.94476 | 22270 ft | 384 kts | 182° |
| 2026-05-04 21:26 | 47.67618 | 11.94432 | 22761 ft | 387 kts | 182° |
| 2026-05-04 21:26 | 47.64914 | 11.94390 | 23241 ft | 390 kts | 182° |
| 2026-05-04 21:26 | 47.62224 | 11.94347 | 23682 ft | 393 kts | 182° |
| 2026-05-04 21:26 | 47.59482 | 11.94297 | 24091 ft | 395 kts | 182° |
| 2026-05-04 21:27 | 47.56718 | 11.94243 | 24511 ft | 397 kts | 182° |
| 2026-05-04 21:27 | 47.53940 | 11.94189 | 24932 ft | 399 kts | 182° |
| 2026-05-04 21:27 | 47.51143 | 11.94137 | 25344 ft | 401 kts | 182° |
| 2026-05-04 21:27 | 47.48346 | 11.94091 | 25750 ft | 403 kts | 182° |
| 2026-05-04 21:28 | 47.45564 | 11.94048 | 26143 ft | 405 kts | 182° |
| 2026-05-04 21:28 | 47.42739 | 11.93919 | 26526 ft | 407 kts | 187° |
| 2026-05-04 21:28 | 47.39926 | 11.93370 | 26906 ft | 408 kts | 189° |
| 2026-05-04 21:28 | 47.37096 | 11.92798 | 27327 ft | 408 kts | 189° |
| 2026-05-04 21:29 | 47.34277 | 11.92234 | 27768 ft | 409 kts | 189° |
| 2026-05-04 21:29 | 47.31452 | 11.91674 | 28156 ft | 411 kts | 189° |
| 2026-05-04 21:29 | 47.28605 | 11.91111 | 28536 ft | 413 kts | 189° |
| 2026-05-04 21:29 | 47.25756 | 11.90545 | 28925 ft | 415 kts | 189° |
| 2026-05-04 21:30 | 47.22921 | 11.89978 | 29286 ft | 417 kts | 189° |
| 2026-05-04 21:30 | 47.20035 | 11.89398 | 29633 ft | 419 kts | 189° |
| 2026-05-04 21:30 | 47.17137 | 11.88820 | 30020 ft | 419 kts | 189° |
| 2026-05-04 21:30 | 47.14241 | 11.88249 | 30361 ft | 420 kts | 189° |
| 2026-05-04 21:31 | 47.08450 | 11.87114 | 30995 ft | 422 kts | 189° |
| 2026-05-04 21:31 | 47.05534 | 11.86544 | 31309 ft | 423 kts | 189° |
| 2026-05-04 21:31 | 47.02612 | 11.85972 | 31528 ft | 424 kts | 189° |
| 2026-05-04 21:32 | 46.99685 | 11.85310 | 31849 ft | 424 kts | 192° |
| 2026-05-04 21:32 | 46.96795 | 11.84476 | 32227 ft | 423 kts | 193° |
| 2026-05-04 21:32 | 46.93917 | 11.83528 | 32525 ft | 423 kts | 194° |
| 2026-05-04 21:32 | 46.91045 | 11.82530 | 32846 ft | 423 kts | 195° |
| 2026-05-04 21:33 | 46.88216 | 11.81548 | 33200 ft | 423 kts | 195° |
| 2026-05-04 21:33 | 46.85342 | 11.80577 | 33556 ft | 422 kts | 194° |
| 2026-05-04 21:33 | 46.82476 | 11.79643 | 33926 ft | 422 kts | 194° |
| 2026-05-04 21:33 | 46.79610 | 11.78734 | 34247 ft | 421 kts | 194° |
| 2026-05-04 21:34 | 46.76736 | 11.77839 | 34514 ft | 422 kts | 194° |
| 2026-05-04 21:34 | 46.73867 | 11.76950 | 34767 ft | 422 kts | 194° |
| 2026-05-04 21:34 | 46.70987 | 11.76052 | 35020 ft | 422 kts | 194° |
| 2026-05-04 21:34 | 46.68139 | 11.75154 | 35276 ft | 422 kts | 194° |
| 2026-05-04 21:35 | 46.65263 | 11.74245 | 35535 ft | 422 kts | 194° |
| 2026-05-04 21:35 | 46.62428 | 11.73138 | 35780 ft | 420 kts | 202° |
| 2026-05-04 21:35 | 46.59774 | 11.71405 | 35984 ft | 418 kts | 211° |
| 2026-05-04 21:36 | 46.55029 | 11.66533 | 36067 ft | 417 kts | 218° |
| 2026-05-04 21:36 | 46.50373 | 11.61503 | 36069 ft | 416 kts | 218° |
| 2026-05-04 21:37 | 46.45739 | 11.56532 | 36068 ft | 416 kts | 218° |
| 2026-05-04 21:37 | 46.41080 | 11.51544 | 36066 ft | 416 kts | 218° |
| 2026-05-04 21:38 | 46.36411 | 11.46542 | 36109 ft | 416 kts | 218° |
| 2026-05-04 21:38 | 46.31777 | 11.41587 | 36126 ft | 416 kts | 218° |
| 2026-05-04 21:39 | 46.27103 | 11.36607 | 36127 ft | 416 kts | 218° |
| 2026-05-04 21:39 | 46.22437 | 11.31660 | 36133 ft | 416 kts | 218° |
| 2026-05-04 21:40 | 46.17760 | 11.26694 | 36135 ft | 416 kts | 218° |
| 2026-05-04 21:40 | 46.13081 | 11.21736 | 36173 ft | 416 kts | 218° |
| 2026-05-04 21:41 | 46.08438 | 11.16821 | 36184 ft | 416 kts | 218° |
| 2026-05-04 21:41 | 46.03759 | 11.11883 | 36175 ft | 417 kts | 218° |
| 2026-05-04 21:42 | 45.99072 | 11.06950 | 36167 ft | 416 kts | 218° |
| 2026-05-04 21:42 | 45.94420 | 11.02072 | 36148 ft | 415 kts | 218° |
| 2026-05-04 21:43 | 45.89743 | 10.97167 | 36150 ft | 415 kts | 218° |
| 2026-05-04 21:43 | 45.85063 | 10.92269 | 36140 ft | 415 kts | 218° |
| 2026-05-04 21:44 | 45.80413 | 10.87429 | 36122 ft | 415 kts | 218° |
| 2026-05-04 21:44 | 45.75756 | 10.82586 | 36121 ft | 414 kts | 218° |
| 2026-05-04 21:45 | 45.71079 | 10.77723 | 36100 ft | 414 kts | 218° |
| 2026-05-04 21:45 | 45.67197 | 10.73688 | 36089 ft | 414 kts | 218° |
| 2026-05-04 21:46 | 45.61764 | 10.68072 | 36079 ft | 414 kts | 218° |
| 2026-05-04 21:46 | 45.57876 | 10.64067 | 36060 ft | 414 kts | 218° |
| 2026-05-04 21:47 | 45.53199 | 10.59253 | 36069 ft | 414 kts | 218° |
| 2026-05-04 21:47 | 45.48527 | 10.54447 | 36077 ft | 414 kts | 218° |
| 2026-05-04 21:48 | 45.43867 | 10.49664 | 36058 ft | 411 kts | 218° |
| 2026-05-04 21:48 | 45.39236 | 10.44918 | 36060 ft | 411 kts | 218° |
| 2026-05-04 21:49 | 45.34584 | 10.40165 | 36056 ft | 411 kts | 218° |
| 2026-05-04 21:49 | 45.29958 | 10.35448 | 36044 ft | 410 kts | 218° |
| 2026-05-04 21:50 | 45.25324 | 10.30734 | 36060 ft | 408 kts | 218° |
| 2026-05-04 21:50 | 45.20707 | 10.26036 | 36062 ft | 408 kts | 218° |
| 2026-05-04 21:51 | 45.16112 | 10.21368 | 36064 ft | 408 kts | 218° |
| 2026-05-04 21:51 | 45.11488 | 10.16691 | 36057 ft | 407 kts | 218° |
| 2026-05-04 21:52 | 45.06874 | 10.12029 | 36071 ft | 406 kts | 218° |
| 2026-05-04 21:52 | 45.02306 | 10.07428 | 36067 ft | 406 kts | 218° |
| 2026-05-04 21:53 | 44.97697 | 10.02798 | 36072 ft | 406 kts | 218° |
| 2026-05-04 21:53 | 44.93080 | 9.98181 | 36076 ft | 405 kts | 218° |
| 2026-05-04 21:54 | 44.88512 | 9.93605 | 36089 ft | 405 kts | 218° |
| 2026-05-04 21:54 | 44.83915 | 9.89005 | 36089 ft | 404 kts | 218° |
| 2026-05-04 21:55 | 44.79343 | 9.84436 | 36099 ft | 404 kts | 218° |
| 2026-05-04 21:55 | 44.74754 | 9.79862 | 36098 ft | 403 kts | 218° |
| 2026-05-04 21:56 | 44.70179 | 9.75324 | 36102 ft | 402 kts | 218° |
| 2026-05-04 21:56 | 44.65616 | 9.70800 | 36106 ft | 401 kts | 218° |
| 2026-05-04 21:57 | 44.61066 | 9.66303 | 36107 ft | 401 kts | 218° |
| 2026-05-04 21:57 | 44.56499 | 9.61800 | 36102 ft | 400 kts | 218° |
| 2026-05-04 21:58 | 44.51942 | 9.57307 | 36107 ft | 399 kts | 218° |
| 2026-05-04 21:58 | 44.47383 | 9.52820 | 36104 ft | 399 kts | 218° |
| 2026-05-04 21:59 | 44.42861 | 9.48382 | 36101 ft | 399 kts | 218° |
| 2026-05-04 21:59 | 44.38300 | 9.43912 | 36104 ft | 400 kts | 217° |
| 2026-05-04 22:00 | 44.33731 | 9.39439 | 36098 ft | 400 kts | 217° |
| 2026-05-04 22:00 | 44.29168 | 9.34983 | 36089 ft | 400 kts | 217° |
| 2026-05-04 22:01 | 44.24628 | 9.30560 | 36091 ft | 400 kts | 217° |
| 2026-05-04 22:01 | 44.20072 | 9.26122 | 36079 ft | 398 kts | 218° |
| 2026-05-04 22:02 | 44.15531 | 9.21700 | 36072 ft | 398 kts | 218° |
| 2026-05-04 22:02 | 44.10964 | 9.17286 | 36076 ft | 398 kts | 218° |
| 2026-05-04 22:03 | 44.06411 | 9.12896 | 36068 ft | 398 kts | 218° |
| 2026-05-04 22:03 | 44.01895 | 9.08536 | 36080 ft | 396 kts | 218° |
| 2026-05-04 22:04 | 43.97367 | 9.04175 | 36063 ft | 396 kts | 217° |
| 2026-05-04 22:04 | 43.92824 | 8.99807 | 36058 ft | 396 kts | 217° |
| 2026-05-04 22:05 | 43.88319 | 8.95481 | 36059 ft | 396 kts | 217° |
| 2026-05-04 22:05 | 43.83791 | 8.91137 | 36051 ft | 394 kts | 217° |
| 2026-05-04 22:06 | 43.79270 | 8.86824 | 36049 ft | 394 kts | 217° |
| 2026-05-04 22:06 | 43.74759 | 8.82524 | 36049 ft | 394 kts | 217° |
| 2026-05-04 22:07 | 43.70332 | 8.78094 | 36046 ft | 392 kts | 224° |
| 2026-05-04 22:07 | 43.65816 | 8.73833 | 36046 ft | 394 kts | 211° |
| 2026-05-04 22:08 | 43.60578 | 8.71487 | 36057 ft | 405 kts | 192° |
| 2026-05-04 22:08 | 43.54880 | 8.71248 | 36044 ft | 410 kts | 186° |
| 2026-05-04 22:08 | 43.52095 | 8.70714 | 36041 ft | 398 kts | 205° |
| 2026-05-04 22:09 | 43.49678 | 8.69022 | 36034 ft | 393 kts | 216° |
| 2026-05-04 22:09 | 43.44984 | 8.65146 | 36043 ft | 394 kts | 213° |
| 2026-05-04 22:10 | 43.40248 | 8.61320 | 36043 ft | 394 kts | 213° |
| 2026-05-04 22:10 | 43.35539 | 8.57519 | 36044 ft | 394 kts | 213° |
| 2026-05-04 22:11 | 43.31131 | 8.53124 | 36027 ft | 390 kts | 223° |
| 2026-05-04 22:11 | 43.27180 | 8.48045 | 36041 ft | 388 kts | 226° |
| 2026-05-04 22:12 | 43.23266 | 8.42907 | 36041 ft | 388 kts | 225° |
| 2026-05-04 22:12 | 43.19290 | 8.37935 | 36041 ft | 388 kts | 224° |
| 2026-05-04 22:13 | 43.15237 | 8.33014 | 36050 ft | 389 kts | 223° |
| 2026-05-04 22:13 | 43.11189 | 8.28105 | 36034 ft | 389 kts | 223° |
| 2026-05-04 22:14 | 43.07140 | 8.23155 | 36038 ft | 389 kts | 224° |
| 2026-05-04 22:14 | 43.03093 | 8.18218 | 36035 ft | 389 kts | 223° |
| 2026-05-04 22:15 | 42.99065 | 8.13323 | 36035 ft | 389 kts | 223° |
| 2026-05-04 22:15 | 42.95012 | 8.08396 | 36035 ft | 389 kts | 223° |
| 2026-05-04 22:16 | 42.90960 | 8.03485 | 36031 ft | 388 kts | 223° |
| 2026-05-04 22:16 | 42.86908 | 7.98590 | 36027 ft | 388 kts | 223° |
| 2026-05-04 22:17 | 42.82858 | 7.93704 | 36024 ft | 390 kts | 223° |
| 2026-05-04 22:17 | 42.78799 | 7.88827 | 36024 ft | 390 kts | 223° |
| 2026-05-04 22:18 | 42.74715 | 7.83922 | 36002 ft | 390 kts | 223° |
| 2026-05-04 22:18 | 42.70672 | 7.79075 | 36018 ft | 389 kts | 223° |
| 2026-05-04 22:19 | 42.66607 | 7.74201 | 36015 ft | 388 kts | 223° |
| 2026-05-04 22:19 | 42.62569 | 7.69370 | 36016 ft | 388 kts | 223° |
| 2026-05-04 22:20 | 42.58504 | 7.64528 | 36010 ft | 388 kts | 223° |
| 2026-05-04 22:20 | 42.54442 | 7.59691 | 36011 ft | 388 kts | 223° |
| 2026-05-04 22:21 | 42.50366 | 7.54845 | 36005 ft | 390 kts | 223° |
| 2026-05-04 22:21 | 42.46284 | 7.49995 | 36005 ft | 390 kts | 223° |
| 2026-05-04 22:22 | 42.42201 | 7.45149 | 36002 ft | 390 kts | 223° |
| 2026-05-04 22:22 | 42.38138 | 7.40336 | 36002 ft | 390 kts | 223° |
| 2026-05-04 22:23 | 42.34048 | 7.35512 | 36001 ft | 389 kts | 223° |
| 2026-05-04 22:23 | 42.29958 | 7.30687 | 35997 ft | 389 kts | 223° |
| 2026-05-04 22:24 | 42.25891 | 7.25892 | 35989 ft | 389 kts | 223° |
| 2026-05-04 22:24 | 42.21801 | 7.21096 | 35990 ft | 389 kts | 223° |
| 2026-05-04 22:25 | 42.17727 | 7.16336 | 35980 ft | 389 kts | 223° |
| 2026-05-04 22:25 | 42.14326 | 7.12360 | 35982 ft | 388 kts | 223° |
| 2026-05-04 22:26 | 42.10247 | 7.07589 | 35984 ft | 388 kts | 223° |
| 2026-05-04 22:26 | 42.06160 | 7.02820 | 36025 ft | 387 kts | 223° |
| 2026-05-04 22:26 | 42.04121 | 7.00444 | 36272 ft | 387 kts | 223° |
| 2026-05-04 22:27 | 42.02088 | 6.98076 | 36534 ft | 386 kts | 223° |
| 2026-05-04 22:27 | 42.00075 | 6.95686 | 36796 ft | 385 kts | 224° |
| 2026-05-04 22:27 | 41.98113 | 6.93287 | 36929 ft | 385 kts | 225° |
| 2026-05-04 22:28 | 41.94199 | 6.88426 | 36975 ft | 380 kts | 225° |
| 2026-05-04 22:28 | 41.90327 | 6.83638 | 36993 ft | 380 kts | 224° |
| 2026-05-04 22:29 | 41.86407 | 6.78841 | 36977 ft | 381 kts | 224° |
| 2026-05-04 22:29 | 41.82472 | 6.74038 | 36982 ft | 382 kts | 224° |
| 2026-05-04 22:30 | 41.78542 | 6.69249 | 36966 ft | 382 kts | 225° |
| 2026-05-04 22:30 | 41.74631 | 6.64487 | 36993 ft | 381 kts | 224° |
| 2026-05-04 22:31 | 41.70694 | 6.59715 | 36997 ft | 380 kts | 224° |
| 2026-05-04 22:31 | 41.66792 | 6.54992 | 37002 ft | 380 kts | 224° |
| 2026-05-04 22:32 | 41.62861 | 6.50234 | 36989 ft | 380 kts | 224° |
| 2026-05-04 22:32 | 41.58963 | 6.45515 | 37001 ft | 380 kts | 224° |
| 2026-05-04 22:33 | 41.55036 | 6.40782 | 37001 ft | 380 kts | 224° |
| 2026-05-04 22:33 | 41.51110 | 6.36058 | 36994 ft | 380 kts | 224° |
| 2026-05-04 22:34 | 41.47212 | 6.31367 | 37000 ft | 380 kts | 224° |
| 2026-05-04 22:34 | 41.43282 | 6.26649 | 37000 ft | 380 kts | 224° |
| 2026-05-04 22:35 | 41.39347 | 6.21948 | 36959 ft | 380 kts | 224° |
| 2026-05-04 22:35 | 41.35422 | 6.17254 | 36988 ft | 378 kts | 225° |
| 2026-05-04 22:36 | 41.31517 | 6.12608 | 36998 ft | 378 kts | 224° |
| 2026-05-04 22:36 | 41.27603 | 6.07948 | 37023 ft | 377 kts | 224° |
| 2026-05-04 22:37 | 41.23693 | 6.03284 | 37014 ft | 377 kts | 224° |
| 2026-05-04 22:37 | 41.19776 | 5.98627 | 37007 ft | 378 kts | 224° |
| 2026-05-04 22:38 | 41.15848 | 5.93980 | 36981 ft | 377 kts | 225° |
| 2026-05-04 22:38 | 41.13914 | 5.91692 | 36838 ft | 376 kts | 225° |
| 2026-05-04 22:38 | 41.11963 | 5.89384 | 36246 ft | 375 kts | 225° |
| 2026-05-04 22:38 | 41.10018 | 5.87081 | 35682 ft | 372 kts | 225° |
| 2026-05-04 22:39 | 41.08093 | 5.84806 | 35252 ft | 367 kts | 225° |
| 2026-05-04 22:39 | 41.06197 | 5.82566 | 34824 ft | 362 kts | 225° |
| 2026-05-04 22:39 | 41.04349 | 5.80384 | 34415 ft | 357 kts | 225° |
| 2026-05-04 22:39 | 41.02503 | 5.78206 | 34006 ft | 353 kts | 224° |
| 2026-05-04 22:40 | 41.00675 | 5.76057 | 33526 ft | 348 kts | 224° |
| 2026-05-04 22:40 | 40.98872 | 5.73941 | 32999 ft | 345 kts | 224° |
| 2026-05-04 22:40 | 40.97076 | 5.71835 | 32494 ft | 342 kts | 224° |
| 2026-05-04 22:40 | 40.95310 | 5.69733 | 32078 ft | 338 kts | 227° |
| 2026-05-04 22:41 | 40.93802 | 5.67373 | 31963 ft | 336 kts | 235° |
| 2026-05-04 22:41 | 40.92462 | 5.64838 | 31694 ft | 334 kts | 235° |
| 2026-05-04 22:41 | 40.91128 | 5.62340 | 31201 ft | 332 kts | 234° |
| 2026-05-04 22:41 | 40.89804 | 5.59877 | 30695 ft | 331 kts | 234° |
| 2026-05-04 22:42 | 40.88468 | 5.57396 | 30198 ft | 329 kts | 234° |
| 2026-05-04 22:42 | 40.87145 | 5.54939 | 29652 ft | 327 kts | 234° |
| 2026-05-04 22:42 | 40.85828 | 5.52493 | 29104 ft | 325 kts | 234° |
| 2026-05-04 22:42 | 40.84518 | 5.50062 | 28578 ft | 323 kts | 234° |
| 2026-05-04 22:43 | 40.83216 | 5.47637 | 28042 ft | 321 kts | 235° |
| 2026-05-04 22:43 | 40.81946 | 5.45266 | 27549 ft | 319 kts | 235° |
| 2026-05-04 22:43 | 40.80666 | 5.42880 | 27051 ft | 317 kts | 235° |
| 2026-05-04 22:43 | 40.79388 | 5.40503 | 26562 ft | 315 kts | 235° |
| 2026-05-04 22:44 | 40.78116 | 5.38150 | 26118 ft | 312 kts | 235° |
| 2026-05-04 22:44 | 40.76865 | 5.35838 | 25731 ft | 308 kts | 235° |
| 2026-05-04 22:44 | 40.75627 | 5.33550 | 25293 ft | 305 kts | 236° |
| 2026-05-04 22:44 | 40.74398 | 5.31274 | 24867 ft | 304 kts | 235° |
| 2026-05-04 22:45 | 40.73175 | 5.29015 | 24412 ft | 302 kts | 236° |
| 2026-05-04 22:45 | 40.70739 | 5.24520 | 23521 ft | 300 kts | 236° |
| 2026-05-04 22:45 | 40.69526 | 5.22282 | 23013 ft | 299 kts | 236° |
| 2026-05-04 22:46 | 40.68320 | 5.20054 | 22514 ft | 298 kts | 236° |
| 2026-05-04 22:46 | 40.67130 | 5.17857 | 22024 ft | 297 kts | 236° |
| 2026-05-04 22:46 | 40.65930 | 5.15644 | 21555 ft | 296 kts | 236° |
| 2026-05-04 22:46 | 40.64727 | 5.13431 | 21088 ft | 296 kts | 236° |
| 2026-05-04 22:47 | 40.63532 | 5.11234 | 20633 ft | 295 kts | 236° |
| 2026-05-04 22:47 | 40.62334 | 5.09036 | 20197 ft | 295 kts | 236° |
| 2026-05-04 22:47 | 40.61139 | 5.06840 | 19756 ft | 295 kts | 236° |
| 2026-05-04 22:47 | 40.59946 | 5.04652 | 19336 ft | 294 kts | 235° |
| 2026-05-04 22:48 | 40.58748 | 5.02455 | 18924 ft | 294 kts | 235° |
| 2026-05-04 22:48 | 40.57568 | 5.00296 | 18531 ft | 294 kts | 235° |
| 2026-05-04 22:48 | 40.56368 | 4.98101 | 18116 ft | 294 kts | 235° |
| 2026-05-04 22:48 | 40.55172 | 4.95912 | 17690 ft | 293 kts | 235° |
| 2026-05-04 22:49 | 40.53987 | 4.93744 | 17353 ft | 290 kts | 235° |
| 2026-05-04 22:49 | 40.52829 | 4.91629 | 17003 ft | 288 kts | 235° |
| 2026-05-04 22:49 | 40.51660 | 4.89496 | 16628 ft | 286 kts | 235° |
| 2026-05-04 22:49 | 40.50498 | 4.87377 | 16258 ft | 285 kts | 235° |
| 2026-05-04 22:50 | 40.49338 | 4.85260 | 15901 ft | 284 kts | 235° |
| 2026-05-04 22:50 | 40.48187 | 4.83160 | 15557 ft | 283 kts | 234° |
| 2026-05-04 22:50 | 40.47035 | 4.81061 | 15206 ft | 282 kts | 234° |
| 2026-05-04 22:50 | 40.45887 | 4.78972 | 14995 ft | 282 kts | 234° |
| 2026-05-04 22:51 | 40.44747 | 4.76899 | 14991 ft | 283 kts | 234° |
| 2026-05-04 22:51 | 40.43592 | 4.74799 | 14988 ft | 283 kts | 234° |
| 2026-05-04 22:51 | 40.42450 | 4.72727 | 14955 ft | 282 kts | 234° |
| 2026-05-04 22:51 | 40.41304 | 4.70651 | 14629 ft | 281 kts | 234° |
| 2026-05-04 22:52 | 40.40157 | 4.68569 | 14286 ft | 280 kts | 234° |
| 2026-05-04 22:52 | 40.38889 | 4.66621 | 13952 ft | 280 kts | 223° |
| 2026-05-04 22:52 | 40.37315 | 4.65119 | 13585 ft | 281 kts | 216° |
| 2026-05-04 22:52 | 40.35669 | 4.63708 | 13113 ft | 284 kts | 216° |
| 2026-05-04 22:53 | 40.34034 | 4.62301 | 12653 ft | 285 kts | 216° |
| 2026-05-04 22:53 | 40.32370 | 4.60868 | 12189 ft | 287 kts | 216° |
| 2026-05-04 22:53 | 40.30696 | 4.59426 | 11739 ft | 288 kts | 216° |
| 2026-05-04 22:53 | 40.29014 | 4.57983 | 11288 ft | 288 kts | 216° |
| 2026-05-04 22:54 | 40.27334 | 4.56541 | 10856 ft | 288 kts | 216° |
| 2026-05-04 22:54 | 40.25652 | 4.55097 | 10421 ft | 288 kts | 216° |
| 2026-05-04 22:54 | 40.24001 | 4.53682 | 9983 ft | 277 kts | 216° |
| 2026-05-04 22:54 | 40.22420 | 4.52328 | 9526 ft | 267 kts | 216° |
| 2026-05-04 22:55 | 40.20895 | 4.51023 | 9062 ft | 263 kts | 215° |
| 2026-05-04 22:55 | 40.19370 | 4.49721 | 8606 ft | 261 kts | 216° |
| 2026-05-04 22:55 | 40.17848 | 4.48424 | 8141 ft | 260 kts | 216° |
| 2026-05-04 22:55 | 40.16320 | 4.47116 | 7690 ft | 262 kts | 216° |
| 2026-05-04 22:56 | 40.14797 | 4.45812 | 7246 ft | 259 kts | 216° |
| 2026-05-04 22:56 | 40.13292 | 4.44526 | 6799 ft | 257 kts | 216° |
| 2026-05-04 22:56 | 40.11818 | 4.43267 | 6368 ft | 256 kts | 216° |
| 2026-05-04 22:56 | 40.10330 | 4.41995 | 5916 ft | 254 kts | 216° |
| 2026-05-04 22:57 | 40.08848 | 4.40730 | 5561 ft | 252 kts | 216° |
| 2026-05-04 22:57 | 40.07372 | 4.39473 | 5241 ft | 252 kts | 216° |
| 2026-05-04 22:57 | 40.06035 | 4.38040 | 4918 ft | 246 kts | 236° |
| 2026-05-04 22:57 | 40.05528 | 4.35987 | 4596 ft | 244 kts | 268° |
| 2026-05-04 22:58 | 40.05872 | 4.33808 | 4259 ft | 249 kts | 290° |
| 2026-05-04 22:58 | 40.06582 | 4.31761 | 3939 ft | 245 kts | 289° |
| 2026-05-04 22:58 | 40.07072 | 4.29673 | 3610 ft | 236 kts | 271° |
| 2026-05-04 22:58 | 40.06695 | 4.27654 | 3292 ft | 229 kts | 237° |
| 2026-05-04 22:59 | 40.05493 | 4.26365 | 2957 ft | 231 kts | 203° |
| 2026-05-04 22:59 | 40.03917 | 4.25921 | 2640 ft | 230 kts | 196° |
| 2026-05-04 22:59 | 40.02393 | 4.25476 | 2508 ft | 216 kts | 198° |
| 2026-05-04 22:59 | 40.01003 | 4.25029 | 2503 ft | 196 kts | 199° |
| 2026-05-04 23:00 | 39.99695 | 4.24670 | 2503 ft | 189 kts | 195° |
| 2026-05-04 23:00 | 39.98419 | 4.24384 | 2464 ft | 178 kts | 195° |
| 2026-05-04 23:00 | 39.97263 | 4.24142 | 2293 ft | 159 kts | 195° |
| 2026-05-04 23:00 | 39.96218 | 4.23925 | 2109 ft | 144 kts | 195° |
| 2026-05-04 23:01 | 39.95282 | 4.23730 | 1910 ft | 134 kts | 197° |
| 2026-05-04 23:01 | 39.94374 | 4.23541 | 1734 ft | 132 kts | 195° |
| 2026-05-04 23:01 | 39.93469 | 4.23353 | 1557 ft | 131 kts | 195° |
| 2026-05-04 23:01 | 39.92572 | 4.23167 | 1380 ft | 130 kts | 195° |
| 2026-05-04 23:02 | 39.91686 | 4.22984 | 1219 ft | 129 kts | 194° |
| 2026-05-04 23:02 | 39.90788 | 4.22798 | 1036 ft | 133 kts | 192° |
| 2026-05-04 23:02 | 39.89860 | 4.22607 | 874 ft | 135 kts | 191° |
| 2026-05-04 23:02 | 39.88945 | 4.22419 | 677 ft | 131 kts | 191° |
| 2026-05-04 23:03 | 39.88046 | 4.22234 | 516 ft | 130 kts | 191° |
| 2026-05-04 23:03 | 39.87149 | 4.22049 | 349 ft | 130 kts | 192° |
| 2026-05-04 23:03 | 39.86324 | 4.21879 | 299 ft | 98 kts | 189° |
| 2026-05-04 23:03 | 39.85938 | 4.21801 | 300 ft | 27 kts | 188° |
| 2026-05-04 23:04 | 39.85749 | 4.21764 | 299 ft | 28 kts | 189° |
| 2026-05-04 23:04 | 39.85559 | 4.21775 | 295 ft | 28 kts | 169° |
| 2026-05-04 23:04 | 39.85446 | 4.21848 | 294 ft | 10 kts | 156° |
| 2026-05-04 23:04 | 39.85410 | 4.21896 | 292 ft | 5 kts | 63° |
| 2026-05-04 23:05 | 39.85433 | 4.21927 | 293 ft | 5 kts | 30° |
| 2026-05-04 23:05 | 39.85517 | 4.21950 | 293 ft | 16 kts | 9° |
| 2026-05-04 23:05 | 39.85622 | 4.21971 | 296 ft | 14 kts | 9° |
| 2026-05-04 23:05 | 39.85710 | 4.21989 | 296 ft | 12 kts | 9° |
| 2026-05-04 23:06 | 39.85785 | 4.22005 | 298 ft | 11 kts | 9° |
| 2026-05-04 23:06 | 39.85873 | 4.22023 | 297 ft | 16 kts | 9° |
| 2026-05-04 23:06 | 39.85997 | 4.22053 | 299 ft | 18 kts | 11° |
| 2026-05-04 23:06 | 39.86116 | 4.22082 | 303 ft | 17 kts | 11° |
| 2026-05-04 23:07 | 39.86225 | 4.22102 | 301 ft | 15 kts | 6° |
| 2026-05-04 23:07 | 39.86317 | 4.22115 | 303 ft | 12 kts | 7° |
| 2026-05-04 23:07 | 39.86394 | 4.22130 | 303 ft | 10 kts | 9° |
| 2026-05-04 23:07 | 39.86458 | 4.22143 | 306 ft | 8 kts | 9° |
| 2026-05-04 23:08 | 39.86510 | 4.22154 | 304 ft | 7 kts | 11° |
| 2026-05-04 23:08 | 39.86539 | 4.22185 | 304 ft | 5 kts | 61° |
| 2026-05-04 23:08 | 39.86543 | 4.22221 | 305 ft | 4 kts | 93° |
| 2026-05-04 23:08 | 39.86532 | 4.22292 | 305 ft | 8 kts | 112° |
| 2026-05-04 23:09 | 39.86487 | 4.22322 | 304 ft | 7 kts | 166° |
| 2026-05-04 23:09 | 39.86473 | 4.22353 | 304 ft | 6 kts | 103° |
| 2026-05-04 23:09 | 39.86467 | 4.22403 | 307 ft | 5 kts | 99° |
| 2026-05-04 23:09 | 39.86466 | 4.22407 | 305 ft | 0 kts | 99° |